sensor_id;sensor_type;location;lat;lon;timestamp;P1;durP1;ratioP1;P2;durP2;ratioP2
934;SDS011;454;53.254;10.400;2023-05-07T04:01:04;3.45;;;3.15;;
934;SDS011;454;53.254;10.400;2023-05-07T04:03:30;3.03;;;2.83;;
934;SDS011;454;53.254;10.400;2023-05-07T04:05:57;4.40;;;3.22;;
934;SDS011;454;53.254;10.400;2023-05-07T04:08:24;4.57;;;3.28;;
934;SDS011;454;53.254;10.400;2023-05-07T04:10:54;4.43;;;4.10;;
934;SDS011;454;53.254;10.400;2023-05-07T04:13:21;11.02;;;3.78;;
934;SDS011;454;53.254;10.400;2023-05-07T04:15:48;8.15;;;4.82;;
934;SDS011;454;53.254;10.400;2023-05-07T04:18:16;3.10;;;3.00;;
934;SDS011;454;53.254;10.400;2023-05-07T04:20:43;2.65;;;1.95;;
934;SDS011;454;53.254;10.400;2023-05-07T04:23:09;3.33;;;1.95;;
934;SDS011;454;53.254;10.400;2023-05-07T04:25:36;3.53;;;3.33;;
934;SDS011;454;53.254;10.400;2023-05-07T04:28:03;4.22;;;3.00;;
934;SDS011;454;53.254;10.400;2023-05-07T04:30:31;2.50;;;2.40;;
934;SDS011;454;53.254;10.400;2023-05-07T04:32:57;2.35;;;1.98;;
934;SDS011;454;53.254;10.400;2023-05-07T04:35:25;6.68;;;3.40;;
934;SDS011;454;53.254;10.400;2023-05-07T04:37:52;3.90;;;3.42;;
934;SDS011;454;53.254;10.400;2023-05-07T04:40:19;4.43;;;4.00;;
934;SDS011;454;53.254;10.400;2023-05-07T04:42:45;4.72;;;4.20;;
934;SDS011;454;53.254;10.400;2023-05-07T04:45:12;5.53;;;5.22;;
934;SDS011;454;53.254;10.400;2023-05-07T04:47:39;4.28;;;3.88;;
934;SDS011;454;53.254;10.400;2023-05-07T04:50:07;4.50;;;3.88;;
934;SDS011;454;53.254;10.400;2023-05-07T04:52:35;4.80;;;4.28;;
934;SDS011;454;53.254;10.400;2023-05-07T04:55:02;3.47;;;3.15;;
934;SDS011;454;53.254;10.400;2023-05-07T04:57:29;3.70;;;3.50;;
934;SDS011;454;53.254;10.400;2023-05-07T04:59:56;3.15;;;2.15;;
934;SDS011;454;53.254;10.400;2023-05-07T05:02:23;2.80;;;2.55;;
934;SDS011;454;53.254;10.400;2023-05-07T05:04:50;2.75;;;2.65;;
934;SDS011;454;53.254;10.400;2023-05-07T05:07:16;5.65;;;4.80;;
934;SDS011;454;53.254;10.400;2023-05-07T05:09:45;2.67;;;2.05;;
934;SDS011;454;53.254;10.400;2023-05-07T05:12:11;1.73;;;1.65;;
934;SDS011;454;53.254;10.400;2023-05-07T05:14:38;4.95;;;2.45;;
934;SDS011;454;53.254;10.400;2023-05-07T05:17:05;3.50;;;3.03;;
934;SDS011;454;53.254;10.400;2023-05-07T05:19:31;2.45;;;2.35;;
934;SDS011;454;53.254;10.400;2023-05-07T05:21:58;3.50;;;3.20;;
934;SDS011;454;53.254;10.400;2023-05-07T05:24:26;4.30;;;3.30;;
934;SDS011;454;53.254;10.400;2023-05-07T05:26:54;4.95;;;3.38;;
934;SDS011;454;53.254;10.400;2023-05-07T05:29:20;4.28;;;2.67;;
934;SDS011;454;53.254;10.400;2023-05-07T05:31:47;2.85;;;2.75;;
934;SDS011;454;53.254;10.400;2023-05-07T05:34:14;2.20;;;2.10;;
934;SDS011;454;53.254;10.400;2023-05-07T05:36:42;2.95;;;2.25;;
934;SDS011;454;53.254;10.400;2023-05-07T05:39:09;2.22;;;1.92;;
934;SDS011;454;53.254;10.400;2023-05-07T05:41:36;2.47;;;2.38;;
934;SDS011;454;53.254;10.400;2023-05-07T05:44:04;2.75;;;2.55;;
934;SDS011;454;53.254;10.400;2023-05-07T05:46:31;2.80;;;2.60;;
934;SDS011;454;53.254;10.400;2023-05-07T05:48:57;3.00;;;2.67;;
934;SDS011;454;53.254;10.400;2023-05-07T05:51:24;2.80;;;2.60;;
934;SDS011;454;53.254;10.400;2023-05-07T05:53:51;3.15;;;2.90;;
934;SDS011;454;53.254;10.400;2023-05-07T05:56:18;2.30;;;2.20;;
934;SDS011;454;53.254;10.400;2023-05-07T05:58:46;3.78;;;3.28;;
934;SDS011;454;53.254;10.400;2023-05-07T06:01:14;2.55;;;2.35;;
934;SDS011;454;53.254;10.400;2023-05-07T06:03:40;1.58;;;1.48;;
934;SDS011;454;53.254;10.400;2023-05-07T06:06:07;3.42;;;2.70;;
934;SDS011;454;53.254;10.400;2023-05-07T06:08:34;3.63;;;3.28;;
934;SDS011;454;53.254;10.400;2023-05-07T06:11:01;3.38;;;3.10;;
934;SDS011;454;53.254;10.400;2023-05-07T06:13:28;5.63;;;3.10;;
934;SDS011;454;53.254;10.400;2023-05-07T06:15:55;4.70;;;3.22;;
934;SDS011;454;53.254;10.400;2023-05-07T06:18:23;3.70;;;3.40;;
934;SDS011;454;53.254;10.400;2023-05-07T06:20:50;3.97;;;3.65;;
934;SDS011;454;53.254;10.400;2023-05-07T06:23:17;2.00;;;1.90;;
934;SDS011;454;53.254;10.400;2023-05-07T06:25:48;4.45;;;3.10;;
934;SDS011;454;53.254;10.400;2023-05-07T06:28:16;1.77;;;1.77;;
934;SDS011;454;53.254;10.400;2023-05-07T06:30:42;3.15;;;2.95;;
934;SDS011;454;53.254;10.400;2023-05-07T06:33:10;13.50;;;2.90;;
934;SDS011;454;53.254;10.400;2023-05-07T06:35:38;3.40;;;3.20;;
934;SDS011;454;53.254;10.400;2023-05-07T06:38:04;2.95;;;2.58;;
934;SDS011;454;53.254;10.400;2023-05-07T06:40:31;3.17;;;3.08;;
934;SDS011;454;53.254;10.400;2023-05-07T06:42:58;3.90;;;2.65;;
934;SDS011;454;53.254;10.400;2023-05-07T06:45:25;3.58;;;3.25;;
934;SDS011;454;53.254;10.400;2023-05-07T06:47:51;2.92;;;2.72;;
934;SDS011;454;53.254;10.400;2023-05-07T06:50:18;4.88;;;2.25;;
934;SDS011;454;53.254;10.400;2023-05-07T06:52:46;5.60;;;2.33;;
934;SDS011;454;53.254;10.400;2023-05-07T06:55:13;4.90;;;3.55;;
934;SDS011;454;53.254;10.400;2023-05-07T06:57:40;2.70;;;2.53;;
934;SDS011;454;53.254;10.400;2023-05-07T07:00:07;2.28;;;2.28;;
934;SDS011;454;53.254;10.400;2023-05-07T07:02:35;3.88;;;2.90;;
934;SDS011;454;53.254;10.400;2023-05-07T07:05:02;3.97;;;1.50;;
934;SDS011;454;53.254;10.400;2023-05-07T07:07:30;2.90;;;2.75;;
934;SDS011;454;53.254;10.400;2023-05-07T07:09:58;2.58;;;2.38;;
934;SDS011;454;53.254;10.400;2023-05-07T07:12:25;2.20;;;2.10;;
934;SDS011;454;53.254;10.400;2023-05-07T07:14:51;3.25;;;2.75;;
934;SDS011;454;53.254;10.400;2023-05-07T07:17:18;2.60;;;2.25;;
934;SDS011;454;53.254;10.400;2023-05-07T07:19:45;3.22;;;3.00;;
934;SDS011;454;53.254;10.400;2023-05-07T07:22:11;2.92;;;1.95;;
934;SDS011;454;53.254;10.400;2023-05-07T07:24:38;2.85;;;2.40;;
934;SDS011;454;53.254;10.400;2023-05-07T07:27:07;3.35;;;3.10;;
934;SDS011;454;53.254;10.400;2023-05-07T07:29:33;3.72;;;3.53;;
934;SDS011;454;53.254;10.400;2023-05-07T07:32:00;3.35;;;3.20;;
934;SDS011;454;53.254;10.400;2023-05-07T07:34:27;3.30;;;2.90;;
934;SDS011;454;53.254;10.400;2023-05-07T07:36:53;3.78;;;3.58;;
934;SDS011;454;53.254;10.400;2023-05-07T07:39:21;2.92;;;2.58;;
934;SDS011;454;53.254;10.400;2023-05-07T07:41:47;2.60;;;2.60;;
934;SDS011;454;53.254;10.400;2023-05-07T07:44:16;2.20;;;2.10;;
934;SDS011;454;53.254;10.400;2023-05-07T07:46:42;2.70;;;2.50;;
934;SDS011;454;53.254;10.400;2023-05-07T07:49:09;1.55;;;1.50;;
934;SDS011;454;53.254;10.400;2023-05-07T07:51:36;3.35;;;3.15;;
934;SDS011;454;53.254;10.400;2023-05-07T07:54:03;2.40;;;2.20;;
934;SDS011;454;53.254;10.400;2023-05-07T07:56:31;4.00;;;3.80;;
934;SDS011;454;53.254;10.400;2023-05-07T07:58:59;3.90;;;3.45;;
934;SDS011;454;53.254;10.400;2023-05-07T08:01:27;3.65;;;3.55;;
934;SDS011;454;53.254;10.400;2023-05-07T08:03:56;2.88;;;2.05;;
934;SDS011;454;53.254;10.400;2023-05-07T08:06:23;2.38;;;2.20;;
934;SDS011;454;53.254;10.400;2023-05-07T08:08:50;4.75;;;2.72;;
934;SDS011;454;53.254;10.400;2023-05-07T08:11:17;2.60;;;2.47;;
934;SDS011;454;53.254;10.400;2023-05-07T08:13:45;3.13;;;2.88;;
934;SDS011;454;53.254;10.400;2023-05-07T08:16:12;4.03;;;3.17;;
934;SDS011;454;53.254;10.400;2023-05-07T08:18:40;2.05;;;2.05;;
934;SDS011;454;53.254;10.400;2023-05-07T08:21:07;3.35;;;2.92;;
934;SDS011;454;53.254;10.400;2023-05-07T08:23:34;1.40;;;1.40;;
934;SDS011;454;53.254;10.400;2023-05-07T08:26:01;3.75;;;2.50;;
934;SDS011;454;53.254;10.400;2023-05-07T08:28:28;4.05;;;3.75;;
934;SDS011;454;53.254;10.400;2023-05-07T08:30:54;4.63;;;3.58;;
934;SDS011;454;53.254;10.400;2023-05-07T08:33:24;3.58;;;3.22;;
934;SDS011;454;53.254;10.400;2023-05-07T08:35:53;3.15;;;3.05;;
934;SDS011;454;53.254;10.400;2023-05-07T08:38:20;4.00;;;3.80;;
934;SDS011;454;53.254;10.400;2023-05-07T08:40:46;2.90;;;2.70;;
934;SDS011;454;53.254;10.400;2023-05-07T08:43:13;2.72;;;2.63;;
934;SDS011;454;53.254;10.400;2023-05-07T08:45:40;3.38;;;3.05;;
934;SDS011;454;53.254;10.400;2023-05-07T08:48:09;4.38;;;3.97;;
934;SDS011;454;53.254;10.400;2023-05-07T08:50:41;3.60;;;3.40;;
934;SDS011;454;53.254;10.400;2023-05-07T08:53:09;3.60;;;3.00;;
934;SDS011;454;53.254;10.400;2023-05-07T08:55:36;19.40;;;3.83;;
934;SDS011;454;53.254;10.400;2023-05-07T08:58:03;3.10;;;2.80;;
934;SDS011;454;53.254;10.400;2023-05-07T09:00:29;3.28;;;3.17;;
934;SDS011;454;53.254;10.400;2023-05-07T09:02:56;4.07;;;3.92;;
934;SDS011;454;53.254;10.400;2023-05-07T09:05:23;3.35;;;3.17;;
934;SDS011;454;53.254;10.400;2023-05-07T09:07:49;4.00;;;3.05;;
934;SDS011;454;53.254;10.400;2023-05-07T09:10:18;5.20;;;3.28;;
934;SDS011;454;53.254;10.400;2023-05-07T09:12:46;3.45;;;2.22;;
934;SDS011;454;53.254;10.400;2023-05-07T09:15:13;2.78;;;2.40;;
934;SDS011;454;53.254;10.400;2023-05-07T09:17:39;3.45;;;3.13;;
934;SDS011;454;53.254;10.400;2023-05-07T09:20:07;2.50;;;2.30;;
934;SDS011;454;53.254;10.400;2023-05-07T09:22:35;2.55;;;2.45;;
934;SDS011;454;53.254;10.400;2023-05-07T09:25:03;3.58;;;3.40;;
934;SDS011;454;53.254;10.400;2023-05-07T09:27:32;4.27;;;3.20;;
934;SDS011;454;53.254;10.400;2023-05-07T09:29:58;3.13;;;3.03;;
934;SDS011;454;53.254;10.400;2023-05-07T09:32:25;3.43;;;3.20;;
934;SDS011;454;53.254;10.400;2023-05-07T09:34:52;2.57;;;2.37;;
934;SDS011;454;53.254;10.400;2023-05-07T09:37:19;4.70;;;3.30;;
934;SDS011;454;53.254;10.400;2023-05-07T09:39:47;4.50;;;4.07;;
934;SDS011;454;53.254;10.400;2023-05-07T09:42:15;2.78;;;2.67;;
934;SDS011;454;53.254;10.400;2023-05-07T09:44:43;3.15;;;3.05;;
934;SDS011;454;53.254;10.400;2023-05-07T09:47:10;3.73;;;3.43;;
934;SDS011;454;53.254;10.400;2023-05-07T09:49:41;2.10;;;2.00;;
934;SDS011;454;53.254;10.400;2023-05-07T09:52:12;5.05;;;3.80;;
934;SDS011;454;53.254;10.400;2023-05-07T09:54:40;3.20;;;2.90;;
934;SDS011;454;53.254;10.400;2023-05-07T09:57:09;2.00;;;1.90;;
934;SDS011;454;53.254;10.400;2023-05-07T09:59:37;3.03;;;2.38;;
934;SDS011;454;53.254;10.400;2023-05-07T10:02:05;4.27;;;3.23;;
934;SDS011;454;53.254;10.400;2023-05-07T10:04:35;4.43;;;4.03;;
934;SDS011;454;53.254;10.400;2023-05-07T10:07:03;2.53;;;2.43;;
934;SDS011;454;53.254;10.400;2023-05-07T10:09:30;4.57;;;2.90;;
934;SDS011;454;53.254;10.400;2023-05-07T10:11:57;3.37;;;3.10;;
934;SDS011;454;53.254;10.400;2023-05-07T10:14:25;2.40;;;2.20;;
934;SDS011;454;53.254;10.400;2023-05-07T10:16:54;2.53;;;2.30;;
934;SDS011;454;53.254;10.400;2023-05-07T10:19:22;3.40;;;3.10;;
934;SDS011;454;53.254;10.400;2023-05-07T10:21:51;2.33;;;2.23;;
934;SDS011;454;53.254;10.400;2023-05-07T10:24:23;2.13;;;2.03;;
934;SDS011;454;53.254;10.400;2023-05-07T10:26:52;3.80;;;3.07;;
934;SDS011;454;53.254;10.400;2023-05-07T10:29:25;3.10;;;2.80;;
934;SDS011;454;53.254;10.400;2023-05-07T10:31:58;2.90;;;2.63;;
934;SDS011;454;53.254;10.400;2023-05-07T10:34:34;2.53;;;2.40;;
934;SDS011;454;53.254;10.400;2023-05-07T10:37:05;4.57;;;3.30;;
934;SDS011;454;53.254;10.400;2023-05-07T10:39:32;2.47;;;2.30;;
934;SDS011;454;53.254;10.400;2023-05-07T10:42:07;4.57;;;2.77;;
934;SDS011;454;53.254;10.400;2023-05-07T10:44:34;2.70;;;2.50;;
934;SDS011;454;53.254;10.400;2023-05-07T10:47:08;2.50;;;2.40;;
934;SDS011;454;53.254;10.400;2023-05-07T10:49:38;1.70;;;1.70;;
934;SDS011;454;53.254;10.400;2023-05-07T10:52:43;2.90;;;2.70;;
934;SDS011;454;53.254;10.400;2023-05-07T10:55:19;2.87;;;2.67;;
934;SDS011;454;53.254;10.400;2023-05-07T10:57:47;2.60;;;2.50;;
934;SDS011;454;53.254;10.400;2023-05-07T11:03:08;3.60;;;1.80;;
934;SDS011;454;53.254;10.400;2023-05-07T11:05:37;2.60;;;2.50;;
934;SDS011;454;53.254;10.400;2023-05-07T11:08:04;3.10;;;2.83;;
934;SDS011;454;53.254;10.400;2023-05-07T11:10:50;2.97;;;2.60;;
934;SDS011;454;53.254;10.400;2023-05-07T11:13:18;3.03;;;2.83;;
934;SDS011;454;53.254;10.400;2023-05-07T11:16:06;5.93;;;3.10;;
934;SDS011;454;53.254;10.400;2023-05-07T11:18:47;3.10;;;2.77;;
934;SDS011;454;53.254;10.400;2023-05-07T11:21:25;10.90;;;4.90;;
934;SDS011;454;53.254;10.400;2023-05-07T11:23:58;2.93;;;2.73;;
934;SDS011;454;53.254;10.400;2023-05-07T11:26:26;2.80;;;2.70;;
934;SDS011;454;53.254;10.400;2023-05-07T11:28:57;1.67;;;1.67;;
934;SDS011;454;53.254;10.400;2023-05-07T11:31:27;4.00;;;2.80;;
934;SDS011;454;53.254;10.400;2023-05-07T11:33:54;3.50;;;3.20;;
934;SDS011;454;53.254;10.400;2023-05-07T11:36:22;2.20;;;2.13;;
934;SDS011;454;53.254;10.400;2023-05-07T11:38:50;2.13;;;1.80;;
934;SDS011;454;53.254;10.400;2023-05-07T11:41:16;1.57;;;1.57;;
934;SDS011;454;53.254;10.400;2023-05-07T11:43:54;1.50;;;1.50;;
934;SDS011;454;53.254;10.400;2023-05-07T11:46:26;1.83;;;1.80;;
934;SDS011;454;53.254;10.400;2023-05-07T11:48:54;2.20;;;2.20;;
934;SDS011;454;53.254;10.400;2023-05-07T11:51:22;2.20;;;2.10;;
934;SDS011;454;53.254;10.400;2023-05-07T11:53:50;2.00;;;1.70;;
934;SDS011;454;53.254;10.400;2023-05-07T11:56:18;1.50;;;1.50;;
934;SDS011;454;53.254;10.400;2023-05-07T11:58:46;5.03;;;2.60;;
934;SDS011;454;53.254;10.400;2023-05-07T12:01:13;2.00;;;2.00;;
934;SDS011;454;53.254;10.400;2023-05-07T12:03:42;1.63;;;1.53;;
934;SDS011;454;53.254;10.400;2023-05-07T12:06:10;2.07;;;1.93;;
934;SDS011;454;53.254;10.400;2023-05-07T12:08:38;2.67;;;2.00;;
934;SDS011;454;53.254;10.400;2023-05-07T12:11:07;3.50;;;2.50;;
934;SDS011;454;53.254;10.400;2023-05-07T12:13:34;3.33;;;2.60;;
934;SDS011;454;53.254;10.400;2023-05-07T12:16:01;1.97;;;1.97;;
934;SDS011;454;53.254;10.400;2023-05-07T12:18:30;2.57;;;2.47;;
934;SDS011;454;53.254;10.400;2023-05-07T12:20:58;2.67;;;2.00;;
934;SDS011;454;53.254;10.400;2023-05-07T12:23:25;1.30;;;1.30;;
934;SDS011;454;53.254;10.400;2023-05-07T12:25:52;1.50;;;1.50;;
934;SDS011;454;53.254;10.400;2023-05-07T12:28:19;2.17;;;1.93;;
934;SDS011;454;53.254;10.400;2023-05-07T12:30:46;2.30;;;1.93;;
934;SDS011;454;53.254;10.400;2023-05-07T12:33:16;1.60;;;1.60;;
934;SDS011;454;53.254;10.400;2023-05-07T12:35:43;2.23;;;2.23;;
934;SDS011;454;53.254;10.400;2023-05-07T12:38:12;1.27;;;1.27;;
934;SDS011;454;53.254;10.400;2023-05-07T12:40:39;1.97;;;1.87;;
934;SDS011;454;53.254;10.400;2023-05-07T12:43:07;1.80;;;1.80;;
934;SDS011;454;53.254;10.400;2023-05-07T12:45:41;1.67;;;1.57;;
934;SDS011;454;53.254;10.400;2023-05-07T12:48:09;1.30;;;1.30;;
934;SDS011;454;53.254;10.400;2023-05-07T12:50:36;1.90;;;1.80;;
934;SDS011;454;53.254;10.400;2023-05-07T12:53:03;2.23;;;1.53;;
934;SDS011;454;53.254;10.400;2023-05-07T12:55:32;1.73;;;1.73;;
934;SDS011;454;53.254;10.400;2023-05-07T12:58:06;1.43;;;1.43;;
934;SDS011;454;53.254;10.400;2023-05-07T13:00:33;10.03;;;2.00;;
934;SDS011;454;53.254;10.400;2023-05-07T13:03:01;1.70;;;1.70;;
934;SDS011;454;53.254;10.400;2023-05-07T13:05:28;1.73;;;1.73;;
934;SDS011;454;53.254;10.400;2023-05-07T13:07:55;3.03;;;1.83;;
934;SDS011;454;53.254;10.400;2023-05-07T13:10:22;2.73;;;2.00;;
934;SDS011;454;53.254;10.400;2023-05-07T13:12:50;1.37;;;1.37;;
934;SDS011;454;53.254;10.400;2023-05-07T13:15:17;2.07;;;1.97;;
934;SDS011;454;53.254;10.400;2023-05-07T13:17:44;1.37;;;1.37;;
934;SDS011;454;53.254;10.400;2023-05-07T13:20:11;1.00;;;1.00;;
934;SDS011;454;53.254;10.400;2023-05-07T13:22:38;0.90;;;0.90;;
934;SDS011;454;53.254;10.400;2023-05-07T13:25:05;1.00;;;1.00;;
934;SDS011;454;53.254;10.400;2023-05-07T13:27:33;1.53;;;1.30;;
934;SDS011;454;53.254;10.400;2023-05-07T13:30:03;1.83;;;1.73;;
934;SDS011;454;53.254;10.400;2023-05-07T13:32:30;1.07;;;1.07;;
934;SDS011;454;53.254;10.400;2023-05-07T13:34:57;2.20;;;2.07;;
934;SDS011;454;53.254;10.400;2023-05-07T13:37:24;0.77;;;0.77;;
934;SDS011;454;53.254;10.400;2023-05-07T13:39:50;0.80;;;0.80;;
934;SDS011;454;53.254;10.400;2023-05-07T13:42:17;0.90;;;0.90;;
934;SDS011;454;53.254;10.400;2023-05-07T13:44:44;1.00;;;1.00;;
934;SDS011;454;53.254;10.400;2023-05-07T13:47:12;1.27;;;1.27;;
934;SDS011;454;53.254;10.400;2023-05-07T13:49:39;1.47;;;1.47;;
934;SDS011;454;53.254;10.400;2023-05-07T13:52:06;2.83;;;1.20;;
934;SDS011;454;53.254;10.400;2023-05-07T13:54:32;2.00;;;1.90;;
934;SDS011;454;53.254;10.400;2023-05-07T13:56:59;0.80;;;0.80;;
934;SDS011;454;53.254;10.400;2023-05-07T13:59:26;0.90;;;0.90;;
934;SDS011;454;53.254;10.400;2023-05-07T14:01:53;1.20;;;1.20;;
934;SDS011;454;53.254;10.400;2023-05-07T14:04:22;2.00;;;1.40;;
934;SDS011;454;53.254;10.400;2023-05-07T14:06:48;2.30;;;0.90;;
934;SDS011;454;53.254;10.400;2023-05-07T14:09:15;0.80;;;0.80;;
934;SDS011;454;53.254;10.400;2023-05-07T14:11:42;1.20;;;1.20;;
934;SDS011;454;53.254;10.400;2023-05-07T14:14:08;1.20;;;1.20;;
934;SDS011;454;53.254;10.400;2023-05-07T14:16:36;3.20;;;1.47;;
934;SDS011;454;53.254;10.400;2023-05-07T14:19:03;1.43;;;1.43;;
934;SDS011;454;53.254;10.400;2023-05-07T14:21:31;1.27;;;1.13;;
934;SDS011;454;53.254;10.400;2023-05-07T14:23:57;1.30;;;1.30;;
934;SDS011;454;53.254;10.400;2023-05-07T14:26:25;1.23;;;1.23;;
934;SDS011;454;53.254;10.400;2023-05-07T14:28:52;1.23;;;1.13;;
934;SDS011;454;53.254;10.400;2023-05-07T14:31:20;1.10;;;1.10;;
934;SDS011;454;53.254;10.400;2023-05-07T14:33:47;1.20;;;1.03;;
934;SDS011;454;53.254;10.400;2023-05-07T14:36:14;1.33;;;0.87;;
934;SDS011;454;53.254;10.400;2023-05-07T14:38:43;1.27;;;1.27;;
934;SDS011;454;53.254;10.400;2023-05-07T14:41:09;0.50;;;0.50;;
934;SDS011;454;53.254;10.400;2023-05-07T14:43:36;1.33;;;1.33;;
934;SDS011;454;53.254;10.400;2023-05-07T14:46:03;1.60;;;1.60;;
934;SDS011;454;53.254;10.400;2023-05-07T14:48:29;0.97;;;0.97;;
934;SDS011;454;53.254;10.400;2023-05-07T14:50:56;1.47;;;1.47;;
934;SDS011;454;53.254;10.400;2023-05-07T14:53:23;1.10;;;1.00;;
934;SDS011;454;53.254;10.400;2023-05-07T14:55:51;0.83;;;0.83;;
934;SDS011;454;53.254;10.400;2023-05-07T14:58:18;1.13;;;1.13;;
934;SDS011;454;53.254;10.400;2023-05-07T15:00:45;0.83;;;0.83;;
934;SDS011;454;53.254;10.400;2023-05-07T15:03:11;1.23;;;1.23;;
934;SDS011;454;53.254;10.400;2023-05-07T15:05:38;0.50;;;0.50;;
934;SDS011;454;53.254;10.400;2023-05-07T15:08:05;1.63;;;1.53;;
934;SDS011;454;53.254;10.400;2023-05-07T15:10:34;1.50;;;1.20;;
934;SDS011;454;53.254;10.400;2023-05-07T15:13:06;1.23;;;1.23;;
934;SDS011;454;53.254;10.400;2023-05-07T15:15:33;1.50;;;1.50;;
934;SDS011;454;53.254;10.400;2023-05-07T15:18:00;1.50;;;1.40;;
934;SDS011;454;53.254;10.400;2023-05-07T15:20:27;1.47;;;1.37;;
934;SDS011;454;53.254;10.400;2023-05-07T15:22:54;1.53;;;1.43;;
934;SDS011;454;53.254;10.400;2023-05-07T15:25:21;1.07;;;1.07;;
934;SDS011;454;53.254;10.400;2023-05-07T15:27:47;1.10;;;1.10;;
934;SDS011;454;53.254;10.400;2023-05-07T15:30:16;0.87;;;0.87;;
934;SDS011;454;53.254;10.400;2023-05-07T15:32:45;0.97;;;0.97;;
934;SDS011;454;53.254;10.400;2023-05-07T15:35:12;0.80;;;0.80;;
934;SDS011;454;53.254;10.400;2023-05-07T15:37:39;0.80;;;0.80;;
934;SDS011;454;53.254;10.400;2023-05-07T15:40:06;0.77;;;0.77;;
934;SDS011;454;53.254;10.400;2023-05-07T15:42:34;0.87;;;0.87;;
934;SDS011;454;53.254;10.400;2023-05-07T15:45:00;0.40;;;0.40;;
934;SDS011;454;53.254;10.400;2023-05-07T15:47:28;1.00;;;1.00;;
934;SDS011;454;53.254;10.400;2023-05-07T15:49:59;0.93;;;0.93;;
934;SDS011;454;53.254;10.400;2023-05-07T15:52:26;0.90;;;0.90;;
934;SDS011;454;53.254;10.400;2023-05-07T15:54:53;1.17;;;1.17;;
934;SDS011;454;53.254;10.400;2023-05-07T15:57:20;0.97;;;0.97;;
934;SDS011;454;53.254;10.400;2023-05-07T15:59:46;0.70;;;0.70;;
934;SDS011;454;53.254;10.400;2023-05-07T16:02:13;0.80;;;0.80;;
934;SDS011;454;53.254;10.400;2023-05-07T16:04:41;2.13;;;1.30;;
934;SDS011;454;53.254;10.400;2023-05-07T16:07:08;0.93;;;0.93;;
934;SDS011;454;53.254;10.400;2023-05-07T16:09:34;1.10;;;1.10;;
934;SDS011;454;53.254;10.400;2023-05-07T16:12:01;1.20;;;1.20;;
934;SDS011;454;53.254;10.400;2023-05-07T16:14:28;1.30;;;1.30;;
934;SDS011;454;53.254;10.400;2023-05-07T16:16:55;0.60;;;0.60;;
934;SDS011;454;53.254;10.400;2023-05-07T16:19:22;0.90;;;0.90;;
934;SDS011;454;53.254;10.400;2023-05-07T16:21:50;1.10;;;1.10;;
934;SDS011;454;53.254;10.400;2023-05-07T16:24:17;1.03;;;1.03;;
934;SDS011;454;53.254;10.400;2023-05-07T16:26:43;1.00;;;1.00;;
934;SDS011;454;53.254;10.400;2023-05-07T16:29:10;1.20;;;1.10;;
934;SDS011;454;53.254;10.400;2023-05-07T16:31:37;1.17;;;1.17;;
934;SDS011;454;53.254;10.400;2023-05-07T16:34:03;1.47;;;1.37;;
934;SDS011;454;53.254;10.400;2023-05-07T16:36:30;0.57;;;0.57;;
934;SDS011;454;53.254;10.400;2023-05-07T16:38:58;0.93;;;0.93;;
934;SDS011;454;53.254;10.400;2023-05-07T16:41:25;1.30;;;1.20;;
934;SDS011;454;53.254;10.400;2023-05-07T16:43:51;1.00;;;1.00;;
934;SDS011;454;53.254;10.400;2023-05-07T16:46:18;0.97;;;0.97;;
934;SDS011;454;53.254;10.400;2023-05-07T16:48:45;0.97;;;0.97;;
934;SDS011;454;53.254;10.400;2023-05-07T16:51:11;1.10;;;1.10;;
934;SDS011;454;53.254;10.400;2023-05-07T16:53:38;1.10;;;1.10;;
934;SDS011;454;53.254;10.400;2023-05-07T16:56:06;1.03;;;1.03;;
934;SDS011;454;53.254;10.400;2023-05-07T16:58:33;1.20;;;1.20;;
934;SDS011;454;53.254;10.400;2023-05-07T17:01:00;1.67;;;1.57;;
934;SDS011;454;53.254;10.400;2023-05-07T17:03:27;1.40;;;1.40;;
934;SDS011;454;53.254;10.400;2023-05-07T17:05:56;0.97;;;0.97;;
934;SDS011;454;53.254;10.400;2023-05-07T17:08:22;0.80;;;0.80;;
934;SDS011;454;53.254;10.400;2023-05-07T17:10:49;0.77;;;0.77;;
934;SDS011;454;53.254;10.400;2023-05-07T17:13:17;1.20;;;1.20;;
934;SDS011;454;53.254;10.400;2023-05-07T17:15:44;1.00;;;0.87;;
934;SDS011;454;53.254;10.400;2023-05-07T17:18:11;1.00;;;1.00;;
934;SDS011;454;53.254;10.400;2023-05-07T17:20:38;1.37;;;1.37;;
934;SDS011;454;53.254;10.400;2023-05-07T17:23:05;0.70;;;0.70;;
934;SDS011;454;53.254;10.400;2023-05-07T17:25:31;1.20;;;1.20;;
934;SDS011;454;53.254;10.400;2023-05-07T17:27:59;1.57;;;1.57;;
934;SDS011;454;53.254;10.400;2023-05-07T17:30:27;1.50;;;1.20;;
934;SDS011;454;53.254;10.400;2023-05-07T17:32:54;0.83;;;0.83;;
934;SDS011;454;53.254;10.400;2023-05-07T17:35:21;1.37;;;1.30;;
934;SDS011;454;53.254;10.400;2023-05-07T17:37:47;1.33;;;1.33;;
934;SDS011;454;53.254;10.400;2023-05-07T17:40:16;1.10;;;1.10;;
934;SDS011;454;53.254;10.400;2023-05-07T17:42:44;0.90;;;0.90;;
934;SDS011;454;53.254;10.400;2023-05-07T17:45:11;1.90;;;1.80;;
934;SDS011;454;53.254;10.400;2023-05-07T17:47:39;1.50;;;1.50;;
934;SDS011;454;53.254;10.400;2023-05-07T17:50:06;0.67;;;0.60;;
934;SDS011;454;53.254;10.400;2023-05-07T17:52:35;1.30;;;1.30;;
934;SDS011;454;53.254;10.400;2023-05-07T17:55:01;1.87;;;1.73;;
934;SDS011;454;53.254;10.400;2023-05-07T17:57:28;1.33;;;1.20;;
934;SDS011;454;53.254;10.400;2023-05-07T17:59:56;1.30;;;1.30;;
934;SDS011;454;53.254;10.400;2023-05-07T18:02:22;1.40;;;1.20;;
934;SDS011;454;53.254;10.400;2023-05-07T18:04:50;1.07;;;1.07;;
934;SDS011;454;53.254;10.400;2023-05-07T18:07:17;1.33;;;1.33;;
934;SDS011;454;53.254;10.400;2023-05-07T18:09:44;2.87;;;1.53;;
934;SDS011;454;53.254;10.400;2023-05-07T18:12:10;0.97;;;0.87;;
934;SDS011;454;53.254;10.400;2023-05-07T18:14:37;1.00;;;1.00;;
934;SDS011;454;53.254;10.400;2023-05-07T18:17:04;1.10;;;1.10;;
934;SDS011;454;53.254;10.400;2023-05-07T18:19:30;1.73;;;1.63;;
934;SDS011;454;53.254;10.400;2023-05-07T18:21:58;2.43;;;1.47;;
934;SDS011;454;53.254;10.400;2023-05-07T18:24:25;0.93;;;0.93;;
934;SDS011;454;53.254;10.400;2023-05-07T18:26:52;1.13;;;1.13;;
934;SDS011;454;53.254;10.400;2023-05-07T18:29:18;1.13;;;1.13;;
934;SDS011;454;53.254;10.400;2023-05-07T18:31:45;1.57;;;1.17;;
934;SDS011;454;53.254;10.400;2023-05-07T18:34:12;1.00;;;1.00;;
934;SDS011;454;53.254;10.400;2023-05-07T18:36:39;2.00;;;1.13;;
934;SDS011;454;53.254;10.400;2023-05-07T18:39:07;1.53;;;1.20;;
934;SDS011;454;53.254;10.400;2023-05-07T18:41:34;1.57;;;1.57;;
934;SDS011;454;53.254;10.400;2023-05-07T18:44:01;1.37;;;1.37;;
934;SDS011;454;53.254;10.400;2023-05-07T18:46:27;1.90;;;1.80;;
934;SDS011;454;53.254;10.400;2023-05-07T18:48:54;1.70;;;1.70;;
934;SDS011;454;53.254;10.400;2023-05-07T18:51:21;1.50;;;1.50;;
934;SDS011;454;53.254;10.400;2023-05-07T18:53:48;1.50;;;1.40;;
934;SDS011;454;53.254;10.400;2023-05-07T18:56:16;1.20;;;1.20;;
934;SDS011;454;53.254;10.400;2023-05-07T18:58:43;1.33;;;1.30;;
934;SDS011;454;53.254;10.400;2023-05-07T19:01:09;1.10;;;1.10;;
934;SDS011;454;53.254;10.400;2023-05-07T19:03:36;2.33;;;2.17;;
934;SDS011;454;53.254;10.400;2023-05-07T19:06:03;1.67;;;1.57;;
934;SDS011;454;53.254;10.400;2023-05-07T19:08:30;2.40;;;2.30;;
934;SDS011;454;53.254;10.400;2023-05-07T19:10:57;1.90;;;1.80;;
934;SDS011;454;53.254;10.400;2023-05-07T19:13:25;2.40;;;2.30;;
934;SDS011;454;53.254;10.400;2023-05-07T19:15:52;2.27;;;2.17;;
934;SDS011;454;53.254;10.400;2023-05-07T19:18:19;1.40;;;1.37;;
934;SDS011;454;53.254;10.400;2023-05-07T19:20:46;1.90;;;1.70;;
934;SDS011;454;53.254;10.400;2023-05-07T19:23:12;6.23;;;1.70;;
934;SDS011;454;53.254;10.400;2023-05-07T19:25:39;2.33;;;1.47;;
934;SDS011;454;53.254;10.400;2023-05-07T19:28:06;1.70;;;1.60;;
934;SDS011;454;53.254;10.400;2023-05-07T19:30:37;2.03;;;1.93;;
934;SDS011;454;53.254;10.400;2023-05-07T19:33:04;2.00;;;1.90;;
934;SDS011;454;53.254;10.400;2023-05-07T19:35:31;1.27;;;1.20;;